createdAt,value
2016-09-07T00:00:41.995Z,0
2016-09-07T00:01:42.241Z,0
2016-09-07T00:02:41.993Z,0
2016-09-07T00:03:41.994Z,0
2016-09-07T00:04:41.997Z,0
2016-09-07T00:05:41.999Z,0
2016-09-07T00:06:41.996Z,0
2016-09-07T00:07:41.997Z,0
2016-09-07T00:08:41.994Z,0
2016-09-07T00:09:42.011Z,0
2016-09-07T00:10:42.002Z,0
2016-09-07T00:11:42.009Z,0
2016-09-07T00:12:42.006Z,0
2016-09-07T00:13:41.999Z,0
2016-09-07T00:14:42.005Z,0
2016-09-07T00:15:42.009Z,0
2016-09-07T00:16:42.013Z,0
2016-09-07T00:17:42.004Z,0
2016-09-07T00:18:42.025Z,0
2016-09-07T00:19:42.009Z,0
2016-09-07T00:20:42.009Z,0
2016-09-07T00:21:42.006Z,0
2016-09-07T00:22:42.007Z,0
2016-09-07T00:23:42.009Z,0
2016-09-07T00:24:42.013Z,0
2016-09-07T00:25:42.026Z,0
2016-09-07T00:26:42.014Z,0
2016-09-07T00:27:42.015Z,0
2016-09-07T00:28:42.325Z,0
2016-09-07T00:29:42.322Z,0
2016-09-07T00:30:42.014Z,0
2016-09-07T00:31:42.016Z,0
2016-09-07T00:32:42.014Z,0
2016-09-07T00:33:42.013Z,0
2016-09-07T00:34:42.312Z,0
2016-09-07T00:35:42.015Z,0
2016-09-07T00:36:42.030Z,0
2016-09-07T00:37:42.017Z,0
2016-09-07T00:38:42.015Z,0
2016-09-07T00:39:42.018Z,0
2016-09-07T00:40:42.024Z,0
2016-09-07T00:41:42.016Z,0
2016-09-07T00:42:42.018Z,0
2016-09-07T00:43:42.020Z,0
2016-09-07T00:44:42.017Z,0
2016-09-07T00:45:42.019Z,0
2016-09-07T00:46:42.018Z,0
2016-09-07T00:47:42.022Z,0
2016-09-07T00:48:42.017Z,0
2016-09-07T00:49:42.016Z,0
2016-09-07T00:50:42.020Z,0
2016-09-07T00:51:42.019Z,0
2016-09-07T00:52:42.019Z,0
2016-09-07T00:53:42.022Z,0
2016-09-07T00:54:42.021Z,0
2016-09-07T00:55:42.023Z,0
2016-09-07T00:56:42.018Z,0
2016-09-07T00:57:42.025Z,0
2016-09-07T00:58:42.020Z,0
2016-09-07T00:59:42.023Z,0
2016-09-07T01:00:42.021Z,0
2016-09-07T01:01:42.026Z,0
2016-09-07T01:02:42.353Z,0
2016-09-07T01:03:42.026Z,0
2016-09-07T01:04:42.029Z,0
2016-09-07T01:05:42.026Z,0
2016-09-07T01:06:42.025Z,0
2016-09-07T01:07:42.025Z,0
2016-09-07T01:08:42.026Z,0
2016-09-07T01:09:42.024Z,0
2016-09-07T01:10:42.031Z,0
2016-09-07T01:11:42.040Z,0
2016-09-07T01:12:42.027Z,0
2016-09-07T01:13:42.029Z,0
2016-09-07T01:14:42.348Z,0
2016-09-07T01:15:42.031Z,0
2016-09-07T01:16:42.341Z,0
2016-09-07T01:17:42.290Z,0
2016-09-07T01:18:42.033Z,0
2016-09-07T01:19:42.343Z,0
2016-09-07T01:20:42.030Z,0
2016-09-07T01:21:42.032Z,0
2016-09-07T01:22:42.037Z,0
2016-09-07T01:23:42.034Z,0
2016-09-07T01:24:42.044Z,0
2016-09-07T01:25:42.278Z,0
2016-09-07T01:26:42.036Z,0
2016-09-07T01:27:42.034Z,0
2016-09-07T01:28:42.035Z,0
2016-09-07T01:29:42.042Z,0
2016-09-07T01:30:42.049Z,0
2016-09-07T01:31:42.055Z,0
2016-09-07T01:32:42.039Z,0
2016-09-07T01:33:42.038Z,0
2016-09-07T01:34:42.485Z,0
2016-09-07T01:35:42.353Z,0
2016-09-07T01:36:42.037Z,0
2016-09-07T01:37:42.043Z,0
2016-09-07T01:38:42.043Z,0
2016-09-07T01:39:42.282Z,0
2016-09-07T01:40:42.045Z,0
2016-09-07T01:41:42.043Z,0
2016-09-07T01:42:42.046Z,0
2016-09-07T01:43:42.042Z,0
2016-09-07T01:44:42.050Z,0
2016-09-07T01:45:42.059Z,0
2016-09-07T01:46:42.059Z,0
2016-09-07T01:47:42.054Z,0
2016-09-07T01:48:42.295Z,0
2016-09-07T01:49:42.355Z,0
2016-09-07T01:50:42.050Z,0
2016-09-07T01:51:42.051Z,0
2016-09-07T01:52:42.045Z,0
2016-09-07T01:53:42.061Z,0
2016-09-07T01:54:42.054Z,0
2016-09-07T01:55:42.053Z,0
2016-09-07T01:56:42.054Z,0
2016-09-07T01:57:42.052Z,0
2016-09-07T01:58:42.060Z,0
2016-09-07T01:59:42.065Z,0
2016-09-07T02:00:42.354Z,0
2016-09-07T02:01:42.061Z,0
2016-09-07T02:02:42.056Z,0
2016-09-07T02:03:42.065Z,0
2016-09-07T02:04:42.361Z,0
2016-09-07T02:05:42.287Z,0
2016-09-07T02:06:42.063Z,0
2016-09-07T02:07:42.059Z,0
2016-09-07T02:08:42.062Z,0
2016-09-07T02:09:42.061Z,0
2016-09-07T02:10:42.380Z,0
2016-09-07T02:11:42.060Z,0
2016-09-07T02:12:42.062Z,0
2016-09-07T02:13:42.371Z,0
2016-09-07T02:14:42.063Z,0
2016-09-07T02:15:42.064Z,0
2016-09-07T02:16:42.061Z,0
2016-09-07T02:17:42.048Z,0
2016-09-07T02:18:42.049Z,0
2016-09-07T02:19:42.051Z,0
2016-09-07T02:20:42.044Z,0
2016-09-07T02:21:42.044Z,0
2016-09-07T02:22:42.040Z,0
2016-09-07T02:23:42.296Z,0
2016-09-07T02:24:42.044Z,0
2016-09-07T02:25:42.045Z,0
2016-09-07T02:26:42.048Z,0
2016-09-07T02:27:42.387Z,0
2016-09-07T02:28:42.047Z,0
2016-09-07T02:29:42.043Z,0
2016-09-07T02:30:42.070Z,0
2016-09-07T02:31:42.049Z,0
2016-09-07T02:32:42.047Z,0
2016-09-07T02:33:42.047Z,0
2016-09-07T02:34:42.102Z,0
2016-09-07T02:35:42.048Z,0
2016-09-07T02:36:42.047Z,0
2016-09-07T02:37:42.361Z,0
2016-09-07T02:38:42.052Z,0
2016-09-07T02:39:42.044Z,0
2016-09-07T02:40:42.048Z,0
2016-09-07T02:41:42.044Z,0
2016-09-07T02:42:42.053Z,0
2016-09-07T02:43:42.067Z,0
2016-09-07T02:44:42.057Z,0
2016-09-07T02:45:42.046Z,0
2016-09-07T02:46:42.061Z,0
2016-09-07T02:47:42.064Z,0
2016-09-07T02:48:42.044Z,0
2016-09-07T02:49:42.051Z,0
2016-09-07T02:50:42.048Z,0
2016-09-07T02:51:42.048Z,0
2016-09-07T02:52:42.081Z,0
2016-09-07T02:53:42.051Z,0
2016-09-07T02:54:42.047Z,0
2016-09-07T02:55:42.052Z,0
2016-09-07T02:56:42.054Z,0
2016-09-07T02:57:42.050Z,0
2016-09-07T02:58:42.367Z,0
2016-09-07T02:59:42.056Z,0
2016-09-07T03:00:42.549Z,0
2016-09-07T03:01:42.056Z,0
2016-09-07T03:02:42.057Z,0
2016-09-07T03:03:42.389Z,0
2016-09-07T03:04:42.052Z,0
2016-09-07T03:05:42.052Z,0
2016-09-07T03:06:42.052Z,0
2016-09-07T03:07:42.069Z,0
2016-09-07T03:08:42.053Z,0
2016-09-07T03:09:42.056Z,0
2016-09-07T03:10:42.050Z,0
2016-09-07T03:11:42.054Z,0
2016-09-07T03:12:42.366Z,0
2016-09-07T03:13:42.051Z,0
2016-09-07T03:14:42.055Z,0
2016-09-07T03:15:42.053Z,0
2016-09-07T03:16:42.053Z,0
2016-09-07T03:17:42.058Z,0
2016-09-07T03:18:42.046Z,0
2016-09-07T03:19:42.070Z,0
2016-09-07T03:20:42.046Z,0
2016-09-07T03:21:42.053Z,0
2016-09-07T03:22:42.061Z,0
2016-09-07T03:23:42.053Z,0
2016-09-07T03:24:42.059Z,0
2016-09-07T03:25:42.056Z,0
2016-09-07T03:26:42.052Z,0
2016-09-07T03:27:42.046Z,0
2016-09-07T03:28:42.050Z,0
2016-09-07T03:29:42.056Z,0
2016-09-07T03:30:42.366Z,0
2016-09-07T03:31:42.294Z,0
2016-09-07T03:32:42.054Z,0
2016-09-07T03:33:42.054Z,0
2016-09-07T03:34:42.212Z,0
2016-09-07T03:35:42.060Z,0
2016-09-07T03:36:42.363Z,0
2016-09-07T03:37:42.058Z,0
2016-09-07T03:38:42.056Z,0
2016-09-07T03:39:42.368Z,0
2016-09-07T03:40:42.060Z,0
2016-09-07T03:41:42.050Z,0
2016-09-07T03:42:42.050Z,0
2016-09-07T03:43:42.048Z,0
2016-09-07T03:44:42.050Z,0
2016-09-07T03:45:42.052Z,0
2016-09-07T03:46:42.051Z,0
2016-09-07T03:47:42.067Z,0
2016-09-07T03:48:42.053Z,0
2016-09-07T03:49:42.051Z,0
2016-09-07T03:50:42.065Z,0
2016-09-07T03:51:42.052Z,0
2016-09-07T03:52:42.055Z,0
2016-09-07T03:53:42.058Z,0
2016-09-07T03:54:42.053Z,0
2016-09-07T03:55:42.056Z,0
2016-09-07T03:56:42.057Z,0
2016-09-07T03:57:42.058Z,0
2016-09-07T03:58:42.060Z,0
2016-09-07T03:59:42.057Z,0
2016-09-07T04:00:42.060Z,0
2016-09-07T04:01:42.060Z,0
2016-09-07T04:02:42.057Z,0
2016-09-07T04:03:42.063Z,0
2016-09-07T04:04:42.058Z,0
2016-09-07T04:05:42.071Z,0
2016-09-07T04:06:42.061Z,0
2016-09-07T04:07:42.062Z,0
2016-09-07T04:08:42.061Z,0
2016-09-07T04:09:42.045Z,0
2016-09-07T04:10:42.064Z,0
2016-09-07T04:11:42.304Z,4
2016-09-07T04:12:42.047Z,4
2016-09-07T04:13:42.048Z,4
2016-09-07T04:14:42.050Z,0
2016-09-07T04:15:42.042Z,0
2016-09-07T04:16:42.050Z,4
2016-09-07T04:17:42.049Z,4
2016-09-07T04:18:42.045Z,4
2016-09-07T04:19:42.043Z,4
2016-09-07T04:20:42.070Z,4
2016-09-07T04:21:42.049Z,8
2016-09-07T04:22:42.064Z,8
2016-09-07T04:23:42.054Z,8
2016-09-07T04:24:42.043Z,8
2016-09-07T04:25:42.045Z,12
2016-09-07T04:26:42.042Z,12
2016-09-07T04:27:42.044Z,16
2016-09-07T04:28:42.359Z,20
2016-09-07T04:29:42.065Z,24
2016-09-07T04:30:42.049Z,28
2016-09-07T04:31:42.058Z,28
2016-09-07T04:32:42.052Z,36
2016-09-07T04:33:42.049Z,44
2016-09-07T04:34:42.154Z,48
2016-09-07T04:35:42.364Z,56
2016-09-07T04:36:42.065Z,68
2016-09-07T04:37:42.056Z,80
2016-09-07T04:38:42.057Z,88
2016-09-07T04:39:42.366Z,100
2016-09-07T04:40:42.106Z,116
2016-09-07T04:41:42.053Z,132
2016-09-07T04:42:42.058Z,148
2016-09-07T04:43:42.062Z,168
2016-09-07T04:44:42.050Z,188
2016-09-07T04:45:42.068Z,204
2016-09-07T04:46:42.051Z,232
2016-09-07T04:47:42.050Z,256
2016-09-07T04:48:42.049Z,280
2016-09-07T04:49:42.052Z,308
2016-09-07T04:50:42.036Z,336
2016-09-07T04:51:42.039Z,364
2016-09-07T04:52:42.051Z,400
2016-09-07T04:53:42.050Z,432
2016-09-07T04:54:42.037Z,464
2016-09-07T04:55:42.037Z,500
2016-09-07T04:56:42.037Z,536
2016-09-07T04:57:42.041Z,576
2016-09-07T04:58:42.056Z,616
2016-09-07T04:59:42.034Z,652
2016-09-07T05:00:42.289Z,696
2016-09-07T05:01:42.038Z,740
2016-09-07T05:02:42.040Z,780
2016-09-07T05:03:42.039Z,820
2016-09-07T05:04:42.037Z,868
2016-09-07T05:05:42.044Z,908
2016-09-07T05:06:42.075Z,956
2016-09-07T05:07:42.040Z,1000
2016-09-07T05:08:42.042Z,1040
2016-09-07T05:09:42.060Z,1088
2016-09-07T05:10:42.036Z,1132
2016-09-07T05:11:42.036Z,1176
2016-09-07T05:12:42.063Z,1216
2016-09-07T05:13:42.350Z,1268
2016-09-07T05:14:42.032Z,1312
2016-09-07T05:15:42.034Z,1364
2016-09-07T05:16:42.360Z,1452
2016-09-07T05:17:42.292Z,1956
2016-09-07T05:18:42.038Z,2640
2016-09-07T05:19:42.038Z,3072
2016-09-07T05:20:42.036Z,3164
2016-09-07T05:21:42.034Z,3316
2016-09-07T05:22:42.053Z,3452
2016-09-07T05:23:42.038Z,3648
2016-09-07T05:24:42.038Z,3824
2016-09-07T05:25:42.037Z,3920
2016-09-07T05:26:42.036Z,4028
2016-09-07T05:27:42.040Z,4136
2016-09-07T05:28:42.039Z,4228
2016-09-07T05:29:42.041Z,4256
2016-09-07T05:30:42.103Z,4480
2016-09-07T05:31:42.044Z,4652
2016-09-07T05:32:42.058Z,4776
2016-09-07T05:33:42.050Z,4804
2016-09-07T05:34:42.104Z,4872
2016-09-07T05:35:42.075Z,4944
2016-09-07T05:36:42.059Z,4988
2016-09-07T05:37:42.053Z,4812
2016-09-07T05:38:42.055Z,4548
2016-09-07T05:39:42.086Z,4284
2016-09-07T05:40:42.060Z,3984
2016-09-07T05:41:42.363Z,3640
2016-09-07T05:42:42.167Z,3408
2016-09-07T05:43:42.071Z,3276
2016-09-07T05:44:42.799Z,3148
2016-09-07T05:45:42.093Z,3076
2016-09-07T05:46:42.092Z,3048
2016-09-07T05:47:42.090Z,3036
2016-09-07T05:48:42.091Z,3044
2016-09-07T05:49:42.089Z,3020
2016-09-07T05:50:42.117Z,3040
2016-09-07T05:51:42.092Z,3040
2016-09-07T05:52:42.092Z,3056
2016-09-07T05:53:42.114Z,3088
2016-09-07T05:54:42.096Z,3112
2016-09-07T05:55:42.104Z,3144
2016-09-07T05:56:42.098Z,3164
2016-09-07T05:57:42.116Z,3176
2016-09-07T05:58:42.118Z,3200
2016-09-07T05:59:42.106Z,3208
2016-09-07T06:00:42.115Z,3228
2016-09-07T06:01:42.104Z,3260
2016-09-07T06:02:42.106Z,3304
2016-09-07T06:03:42.119Z,3332
2016-09-07T06:04:42.107Z,3360
2016-09-07T06:05:42.124Z,3376
2016-09-07T06:06:42.139Z,3404
2016-09-07T06:07:42.127Z,3432
2016-09-07T06:08:42.124Z,3448
2016-09-07T06:09:42.124Z,3448
2016-09-07T06:10:42.131Z,3464
2016-09-07T06:11:42.146Z,3480
2016-09-07T06:12:42.128Z,3516
2016-09-07T06:13:42.123Z,3584
2016-09-07T06:14:42.130Z,3608
2016-09-07T06:15:42.123Z,3668
2016-09-07T06:16:42.142Z,3672
2016-09-07T06:17:42.210Z,3824
2016-09-07T06:18:42.439Z,3992
2016-09-07T06:19:42.133Z,4244
2016-09-07T06:20:42.132Z,4520
2016-09-07T06:21:42.133Z,4788
2016-09-07T06:22:42.137Z,5040
2016-09-07T06:23:42.444Z,5364
2016-09-07T06:24:42.138Z,5500
2016-09-07T06:25:42.136Z,5580
2016-09-07T06:26:42.135Z,5688
2016-09-07T06:27:42.157Z,5940
2016-09-07T06:28:42.134Z,6172
2016-09-07T06:29:42.140Z,6536
2016-09-07T06:30:42.141Z,6772
2016-09-07T06:31:42.156Z,7212
2016-09-07T06:32:42.148Z,7532
2016-09-07T06:33:42.147Z,8196
2016-09-07T06:34:42.200Z,8280
2016-09-07T06:35:42.154Z,7928
2016-09-07T06:36:42.157Z,7744
2016-09-07T06:37:42.155Z,7464
2016-09-07T06:38:42.181Z,7416
2016-09-07T06:39:42.160Z,7564
2016-09-07T06:40:42.180Z,7848
2016-09-07T06:41:42.180Z,8012
2016-09-07T06:42:42.190Z,8268
2016-09-07T06:43:42.182Z,8424
2016-09-07T06:44:42.432Z,8696
2016-09-07T06:45:42.186Z,8852
2016-09-07T06:46:42.185Z,8872
2016-09-07T06:47:42.188Z,8872
2016-09-07T06:48:42.196Z,9240
2016-09-07T06:49:42.519Z,8932
2016-09-07T06:50:42.202Z,9200
2016-09-07T06:51:42.211Z,9164
2016-09-07T06:52:42.228Z,9264
2016-09-07T06:53:42.300Z,9336
2016-09-07T06:54:42.300Z,9420
2016-09-07T06:55:42.233Z,9396
2016-09-07T06:56:42.224Z,9600
2016-09-07T06:57:42.252Z,9576
2016-09-07T06:58:42.248Z,9484
2016-09-07T06:59:42.268Z,9284
2016-09-07T07:00:42.252Z,9676
2016-09-07T07:01:42.288Z,9428
2016-09-07T07:02:42.270Z,8936
2016-09-07T07:03:42.279Z,8308
2016-09-07T07:04:42.274Z,8164
2016-09-07T07:05:42.273Z,7996
2016-09-07T07:06:42.296Z,8068
2016-09-07T07:07:42.295Z,7516
2016-09-07T07:08:42.297Z,7284
2016-09-07T07:09:42.297Z,7656
2016-09-07T07:10:42.357Z,7592
2016-09-07T07:11:42.307Z,7500
2016-09-07T07:12:42.314Z,7576
2016-09-07T07:13:42.318Z,7500
2016-09-07T07:14:42.333Z,6496
2016-09-07T07:15:42.337Z,8176
2016-09-07T07:16:42.335Z,8396
2016-09-07T07:17:42.361Z,7804
2016-09-07T07:18:42.344Z,9144
2016-09-07T07:19:42.358Z,9516
2016-09-07T07:20:42.388Z,8980
2016-09-07T07:21:42.367Z,9948
2016-09-07T07:22:42.675Z,9932
2016-09-07T07:23:42.677Z,9976
2016-09-07T07:24:42.365Z,9820
2016-09-07T07:25:42.370Z,9612
2016-09-07T07:26:42.694Z,10044
2016-09-07T07:27:42.946Z,7712
2016-09-07T07:28:42.405Z,10136
2016-09-07T07:29:42.435Z,10084
2016-09-07T07:30:42.427Z,10168
2016-09-07T07:31:42.408Z,10348
2016-09-07T07:32:42.407Z,10488
2016-09-07T07:33:42.408Z,8348
2016-09-07T07:34:42.463Z,5648
2016-09-07T07:35:42.420Z,6208
2016-09-07T07:36:42.462Z,10536
2016-09-07T07:37:42.435Z,5380
2016-09-07T07:38:42.437Z,10484
2016-09-07T07:39:42.445Z,10968
2016-09-07T07:40:42.451Z,10136
2016-09-07T07:41:42.467Z,9184
2016-09-07T07:42:42.460Z,9764
2016-09-07T07:43:42.467Z,8992
2016-09-07T07:44:42.475Z,6264
2016-09-07T07:45:42.477Z,7908
2016-09-07T07:46:42.484Z,7800
2016-09-07T07:47:42.492Z,7632
2016-09-07T07:48:42.519Z,7756
2016-09-07T07:49:42.752Z,6128
2016-09-07T07:50:42.506Z,6808
2016-09-07T07:51:42.513Z,8132
2016-09-07T07:52:42.513Z,6416
2016-09-07T07:53:42.521Z,7060
2016-09-07T07:54:42.523Z,6996
2016-09-07T07:55:42.533Z,8360
2016-09-07T07:56:42.532Z,6156
2016-09-07T07:57:42.546Z,6556
2016-09-07T07:58:42.834Z,6440
2016-09-07T07:59:42.551Z,7764
2016-09-07T08:00:42.555Z,7148
2016-09-07T08:01:42.559Z,6728
2016-09-07T08:02:42.572Z,6648
2016-09-07T08:03:42.574Z,7204
2016-09-07T08:04:42.574Z,7500
2016-09-07T08:05:42.829Z,7604
2016-09-07T08:06:42.581Z,7860
2016-09-07T08:07:42.619Z,9208
2016-09-07T08:08:42.587Z,7988
2016-09-07T08:09:42.602Z,8664
2016-09-07T08:10:42.602Z,8688
2016-09-07T08:11:42.600Z,11280
2016-09-07T08:12:42.608Z,10252
2016-09-07T08:13:42.854Z,10092
2016-09-07T08:14:42.618Z,8016
2016-09-07T08:15:42.615Z,10876
2016-09-07T08:16:42.620Z,12104
2016-09-07T08:17:42.625Z,8696
2016-09-07T08:18:42.635Z,8304
2016-09-07T08:19:42.638Z,11480
2016-09-07T08:20:42.633Z,8416
2016-09-07T08:21:42.644Z,8368
2016-09-07T08:22:42.954Z,8360
2016-09-07T08:23:42.668Z,8288
2016-09-07T08:24:42.667Z,8560
2016-09-07T08:25:42.679Z,7824
2016-09-07T08:26:42.674Z,7788
2016-09-07T08:27:42.668Z,8260
2016-09-07T08:28:42.693Z,8652
2016-09-07T08:29:42.680Z,8568
2016-09-07T08:30:42.688Z,8784
2016-09-07T08:31:42.693Z,8112
2016-09-07T08:32:42.689Z,7756
2016-09-07T08:33:42.708Z,8288
2016-09-07T08:34:43.075Z,7936
2016-09-07T08:35:42.707Z,7792
2016-09-07T08:36:42.715Z,6792
2016-09-07T08:37:42.711Z,6868
2016-09-07T08:38:42.716Z,7524
2016-09-07T08:39:42.734Z,7056
2016-09-07T08:40:42.738Z,6696
2016-09-07T08:41:42.742Z,6408
2016-09-07T08:42:42.736Z,6292
2016-09-07T08:43:42.747Z,5796
2016-09-07T08:44:42.750Z,6156
2016-09-07T08:45:42.750Z,5884
2016-09-07T08:46:43.070Z,5892
2016-09-07T08:47:42.766Z,5952
2016-09-07T08:48:42.753Z,5736
2016-09-07T08:49:42.758Z,6172
2016-09-07T08:50:42.761Z,6772
2016-09-07T08:51:42.776Z,6764
2016-09-07T08:52:42.770Z,6912
2016-09-07T08:53:42.847Z,7240
2016-09-07T08:54:42.781Z,7060
2016-09-07T08:55:42.779Z,7356
2016-09-07T08:56:42.783Z,7488
2016-09-07T08:57:42.782Z,7836
2016-09-07T08:58:42.788Z,8288
2016-09-07T08:59:42.790Z,8068
2016-09-07T09:00:42.798Z,7916
2016-09-07T09:01:42.796Z,7812
2016-09-07T09:02:42.804Z,8048
2016-09-07T09:03:42.816Z,8108
2016-09-07T09:04:43.056Z,9676
2016-09-07T09:05:42.807Z,8916
2016-09-07T09:06:42.815Z,10668
2016-09-07T09:07:43.140Z,10948
2016-09-07T09:08:42.825Z,9712
2016-09-07T09:09:42.824Z,11588
2016-09-07T09:10:42.824Z,9356
2016-09-07T09:11:42.831Z,10328
2016-09-07T09:12:42.831Z,9608
2016-09-07T09:13:42.842Z,11144
2016-09-07T09:14:42.867Z,10956
2016-09-07T09:15:42.868Z,9460
2016-09-07T09:16:42.887Z,11224
2016-09-07T09:17:42.865Z,9744
2016-09-07T09:18:42.872Z,10096
2016-09-07T09:19:42.866Z,9864
2016-09-07T09:20:42.866Z,9168
2016-09-07T09:21:42.886Z,9032
2016-09-07T09:22:42.871Z,9436
2016-09-07T09:23:42.887Z,8480
2016-09-07T09:24:42.888Z,10908
2016-09-07T09:25:42.885Z,10236
2016-09-07T09:26:42.889Z,10484
2016-09-07T09:27:42.901Z,10228
2016-09-07T09:28:42.900Z,11468
2016-09-07T09:29:42.897Z,10876
2016-09-07T09:30:42.927Z,11724
2016-09-07T09:31:42.915Z,11620
2016-09-07T09:32:42.946Z,9492
2016-09-07T09:33:42.927Z,9620
2016-09-07T09:34:43.187Z,9348
2016-09-07T09:35:42.936Z,8900
2016-09-07T09:36:42.934Z,8852
2016-09-07T09:37:42.937Z,9816
2016-09-07T09:38:42.938Z,9008
2016-09-07T09:39:42.938Z,10792
2016-09-07T09:40:43.025Z,9188
2016-09-07T09:41:42.953Z,8968
2016-09-07T09:42:43.191Z,8880
2016-09-07T09:43:42.968Z,8768
2016-09-07T09:44:42.955Z,8732
2016-09-07T09:45:42.958Z,9108
2016-09-07T09:46:42.968Z,9672
2016-09-07T09:47:42.971Z,10168
2016-09-07T09:48:43.306Z,11092
2016-09-07T09:49:42.984Z,10556
2016-09-07T09:50:42.986Z,9836
2016-09-07T09:51:42.994Z,9256
2016-09-07T09:52:42.987Z,9240
2016-09-07T09:53:43.308Z,10132
2016-09-07T09:54:42.989Z,9300
2016-09-07T09:55:43.006Z,11504
2016-09-07T09:56:43.002Z,11704
2016-09-07T09:57:43.008Z,11764
2016-09-07T09:58:43.009Z,9948
2016-09-07T09:59:43.017Z,11416
2016-09-07T10:00:43.017Z,9960
2016-09-07T10:01:43.347Z,9844
2016-09-07T10:02:43.036Z,9916
2016-09-07T10:03:43.038Z,10076
2016-09-07T10:04:43.105Z,11508
2016-09-07T10:05:43.040Z,10744
2016-09-07T10:06:43.048Z,10432
2016-09-07T10:07:43.044Z,9568
2016-09-07T10:08:43.072Z,10580
2016-09-07T10:09:43.063Z,9132
2016-09-07T10:10:43.062Z,9488
2016-09-07T10:11:43.065Z,10136
2016-09-07T10:12:43.385Z,9672
2016-09-07T10:13:43.076Z,9052
2016-09-07T10:14:43.396Z,10524
2016-09-07T10:15:43.079Z,10864
2016-09-07T10:16:43.077Z,10828
2016-09-07T10:17:43.085Z,10824
2016-09-07T10:18:43.090Z,11128
2016-09-07T10:19:43.103Z,11172
2016-09-07T10:20:43.115Z,10820
2016-09-07T10:21:43.102Z,10956
2016-09-07T10:22:43.114Z,10952
2016-09-07T10:23:43.117Z,10668
2016-09-07T10:24:43.129Z,10748
2016-09-07T10:25:43.131Z,11148
2016-09-07T10:26:43.130Z,11476
2016-09-07T10:27:43.444Z,11728
2016-09-07T10:28:43.143Z,11672
2016-09-07T10:29:43.137Z,10820
2016-09-07T10:30:43.150Z,10808
2016-09-07T10:31:43.151Z,10392
2016-09-07T10:32:43.155Z,9536
2016-09-07T10:33:43.405Z,10600
2016-09-07T10:34:43.206Z,11024
2016-09-07T10:35:43.162Z,10608
2016-09-07T10:36:43.168Z,9932
2016-09-07T10:37:43.181Z,8444
2016-09-07T10:38:43.183Z,10160
2016-09-07T10:39:43.182Z,10200
2016-09-07T10:40:43.214Z,10316
2016-09-07T10:41:43.189Z,10256
2016-09-07T10:42:43.191Z,10368
2016-09-07T10:43:43.203Z,10424
2016-09-07T10:44:43.200Z,10164
2016-09-07T10:45:43.201Z,10356
2016-09-07T10:46:43.220Z,10380
2016-09-07T10:47:43.213Z,10588
2016-09-07T10:48:43.220Z,10764
2016-09-07T10:49:43.233Z,10132
2016-09-07T10:50:43.232Z,10564
2016-09-07T10:51:43.235Z,10248
2016-09-07T10:52:43.235Z,9456
2016-09-07T10:53:43.238Z,10160
2016-09-07T10:54:43.497Z,10120
2016-09-07T10:55:43.250Z,10284
2016-09-07T10:56:43.245Z,8968
2016-09-07T10:57:43.263Z,9652
2016-09-07T10:58:43.259Z,10016
2016-09-07T10:59:43.262Z,9880
2016-09-07T11:00:43.578Z,9440
2016-09-07T11:01:43.279Z,8836
2016-09-07T11:02:43.283Z,8932
2016-09-07T11:03:43.282Z,9900
2016-09-07T11:04:43.282Z,9716
2016-09-07T11:05:43.286Z,9468
2016-09-07T11:06:43.342Z,9416
2016-09-07T11:07:43.307Z,9708
2016-09-07T11:08:43.299Z,9940
2016-09-07T11:09:43.304Z,9832
2016-09-07T11:10:43.303Z,9408
2016-09-07T11:11:43.327Z,8996
2016-09-07T11:12:43.317Z,8744
2016-09-07T11:13:43.328Z,8728
2016-09-07T11:14:43.326Z,8820
2016-09-07T11:15:43.337Z,8852
2016-09-07T11:16:43.348Z,8688
2016-09-07T11:17:43.346Z,7248
2016-09-07T11:18:43.350Z,7388
2016-09-07T11:19:43.350Z,7444
2016-09-07T11:20:43.348Z,7464
2016-09-07T11:21:43.353Z,7448
2016-09-07T11:22:43.369Z,7456
2016-09-07T11:23:43.670Z,7816
2016-09-07T11:24:43.371Z,7500
2016-09-07T11:25:43.370Z,8624
2016-09-07T11:26:43.378Z,8728
2016-09-07T11:27:43.388Z,8560
2016-09-07T11:28:43.387Z,8576
2016-09-07T11:29:43.392Z,8616
2016-09-07T11:30:43.383Z,8648
2016-09-07T11:31:43.390Z,8632
2016-09-07T11:32:43.396Z,8496
2016-09-07T11:33:43.402Z,8168
2016-09-07T11:34:43.767Z,8084
2016-09-07T11:35:43.415Z,8284
2016-09-07T11:36:43.655Z,8076
2016-09-07T11:37:43.414Z,7800
2016-09-07T11:38:43.422Z,7524
2016-09-07T11:39:43.424Z,7232
2016-09-07T11:40:43.432Z,6840
2016-09-07T11:41:43.427Z,6596
2016-09-07T11:42:43.448Z,6340
2016-09-07T11:43:43.445Z,6312
2016-09-07T11:44:43.455Z,6540
2016-09-07T11:45:43.461Z,6760
2016-09-07T11:46:43.447Z,6820
2016-09-07T11:47:43.453Z,6796
2016-09-07T11:48:43.458Z,6676
2016-09-07T11:49:43.467Z,6556
2016-09-07T11:50:43.469Z,6444
2016-09-07T11:51:43.466Z,6492
2016-09-07T11:52:43.473Z,6524
2016-09-07T11:53:43.473Z,6488
2016-09-07T11:54:43.512Z,6176
2016-09-07T11:55:43.491Z,5844
2016-09-07T11:56:43.515Z,5948
2016-09-07T11:57:43.511Z,6224
2016-09-07T11:58:43.501Z,6124
2016-09-07T11:59:43.508Z,5692
2016-09-07T12:00:43.519Z,5472
2016-09-07T12:01:43.824Z,5420
2016-09-07T12:02:43.514Z,5368
2016-09-07T12:03:43.521Z,5376
2016-09-07T12:04:43.529Z,5512
2016-09-07T12:05:43.528Z,5468
2016-09-07T12:06:43.533Z,5344
2016-09-07T12:07:43.530Z,5208
2016-09-07T12:08:43.538Z,4460
2016-09-07T12:09:43.540Z,5168
2016-09-07T12:10:43.628Z,5128
2016-09-07T12:11:43.559Z,5212
2016-09-07T12:12:43.557Z,5044
2016-09-07T12:13:43.555Z,5052
2016-09-07T12:14:43.564Z,5104
2016-09-07T12:15:43.566Z,5080
2016-09-07T12:16:43.585Z,5100
2016-09-07T12:17:43.581Z,5088
2016-09-07T12:18:43.600Z,5056
2016-09-07T12:19:43.595Z,4996
2016-09-07T12:20:43.587Z,4972
2016-09-07T12:21:43.591Z,4952
2016-09-07T12:22:43.596Z,4960
2016-09-07T12:23:43.598Z,4952
2016-09-07T12:24:43.601Z,4880
2016-09-07T12:25:43.606Z,4856
2016-09-07T12:26:43.623Z,4884
2016-09-07T12:27:43.615Z,4872
2016-09-07T12:28:43.931Z,4872
2016-09-07T12:29:43.631Z,4856
2016-09-07T12:30:43.628Z,4872
2016-09-07T12:31:43.630Z,4872
2016-09-07T12:32:43.634Z,4852
2016-09-07T12:33:44.193Z,4816
2016-09-07T12:34:43.946Z,4820
2016-09-07T12:35:43.644Z,4804
2016-09-07T12:36:43.654Z,4820
2016-09-07T12:37:43.659Z,4812
2016-09-07T12:38:43.661Z,4792
2016-09-07T12:39:43.672Z,4728
2016-09-07T12:40:43.669Z,4768
2016-09-07T12:41:43.675Z,4732
2016-09-07T12:42:43.673Z,4768
2016-09-07T12:43:43.677Z,4792
2016-09-07T12:44:43.676Z,4780
2016-09-07T12:45:44.008Z,4752
2016-09-07T12:46:43.694Z,4728
2016-09-07T12:47:43.695Z,4708
2016-09-07T12:48:43.696Z,4720
2016-09-07T12:49:43.701Z,4708
2016-09-07T12:50:43.709Z,4724
2016-09-07T12:51:43.702Z,4708
2016-09-07T12:52:44.024Z,4716
2016-09-07T12:53:43.710Z,4692
2016-09-07T12:54:43.729Z,4692
2016-09-07T12:55:43.740Z,4684
2016-09-07T12:56:43.748Z,4668
2016-09-07T12:57:43.744Z,4656
2016-09-07T12:58:43.740Z,4648
2016-09-07T12:59:44.075Z,4644
2016-09-07T13:00:43.742Z,4596
2016-09-07T13:01:43.762Z,4596
2016-09-07T13:02:43.755Z,4600
2016-09-07T13:03:43.750Z,4604
2016-09-07T13:04:43.762Z,4584
2016-09-07T13:05:43.767Z,4568
2016-09-07T13:06:43.775Z,4568
2016-09-07T13:07:44.012Z,4560
2016-09-07T13:08:43.773Z,4544
2016-09-07T13:09:43.773Z,4572
2016-09-07T13:10:43.775Z,4564
2016-09-07T13:11:43.788Z,4560
2016-09-07T13:12:43.790Z,4548
2016-09-07T13:13:43.792Z,4540
2016-09-07T13:14:43.800Z,4548
2016-09-07T13:15:43.812Z,4516
2016-09-07T13:16:43.810Z,4532
2016-09-07T13:17:43.811Z,4524
2016-09-07T13:18:43.809Z,4512
2016-09-07T13:19:43.812Z,4504
2016-09-07T13:20:43.817Z,4492
2016-09-07T13:21:43.818Z,4528
2016-09-07T13:22:43.842Z,4516
2016-09-07T13:23:43.845Z,4524
2016-09-07T13:24:43.839Z,4488
2016-09-07T13:25:44.376Z,4492
2016-09-07T13:26:43.851Z,4484
2016-09-07T13:27:43.850Z,4480
2016-09-07T13:28:43.862Z,4488
2016-09-07T13:29:43.857Z,4464
2016-09-07T13:30:43.854Z,4492
2016-09-07T13:31:43.865Z,4468
2016-09-07T13:32:43.862Z,4484
2016-09-07T13:33:43.886Z,4468
2016-09-07T13:34:44.028Z,4468
2016-09-07T13:35:43.881Z,4460
2016-09-07T13:36:43.883Z,4456
2016-09-07T13:37:43.900Z,4460
2016-09-07T13:38:43.887Z,4444
2016-09-07T13:39:43.897Z,4440
2016-09-07T13:40:43.905Z,4452
2016-09-07T13:41:43.903Z,4456
2016-09-07T13:42:43.911Z,4468
2016-09-07T13:43:43.922Z,4464